createdAt,value
2019-06-10T00:02:16.210Z,14.15
2019-06-10T00:04:52.280Z,13.83
2019-06-10T00:07:28.343Z,13.45
2019-06-10T00:10:07.464Z,14.80
2019-06-10T00:12:43.520Z,14.28
2019-06-10T00:15:21.380Z,14.50
2019-06-10T00:18:18.993Z,15.30
2019-06-10T00:20:35.387Z,14.38
2019-06-10T00:23:12.485Z,14.47
2019-06-10T00:25:51.409Z,14.60
2019-06-10T00:28:26.745Z,15.40
2019-06-10T00:31:03.961Z,16.00
2019-06-10T00:33:41.381Z,16.00
2019-06-10T00:36:17.578Z,15.53
2019-06-10T00:38:53.535Z,15.63
2019-06-10T00:41:31.452Z,15.85
2019-06-10T00:44:08.400Z,17.48
2019-06-10T00:46:45.504Z,16.55
2019-06-10T00:49:21.564Z,17.65
2019-06-10T00:51:57.620Z,17.55
2019-06-10T00:54:34.695Z,17.12
2019-06-10T00:57:12.375Z,17.15
2019-06-10T00:59:50.664Z,17.50
2019-06-10T01:02:26.162Z,18.30
2019-06-10T01:05:03.089Z,17.87
2019-06-10T01:07:41.442Z,18.60
2019-06-10T01:10:17.505Z,18.77
2019-06-10T01:12:53.568Z,18.35
2019-06-10T01:15:31.165Z,17.60
2019-06-10T01:18:24.824Z,19.23
2019-06-10T01:20:45.635Z,18.52
2019-06-10T01:23:21.978Z,19.15
2019-06-10T01:26:01.349Z,18.95
2019-06-10T01:28:36.665Z,19.00
2019-06-10T01:31:17.589Z,21.17
2019-06-10T01:33:51.298Z,21.00
2019-06-10T01:36:27.402Z,21.33
2019-06-10T01:39:04.497Z,24.15
2019-06-10T01:41:40.913Z,24.98
2019-06-10T01:44:17.732Z,25.10
2019-06-10T01:46:53.800Z,26.10
2019-06-10T01:49:30.750Z,26.35
2019-06-10T01:52:07.258Z,26.00
2019-06-10T01:54:43.409Z,23.70
2019-06-10T01:57:21.242Z,24.15
2019-06-10T01:59:57.056Z,26.52
2019-06-10T02:02:35.158Z,26.82
2019-06-10T02:05:14.637Z,26.65
2019-06-10T02:07:51.522Z,26.27
2019-06-10T02:10:27.251Z,27.37
2019-06-10T02:13:03.423Z,26.62
2019-06-10T02:15:41.033Z,26.25
2019-06-10T02:18:18.058Z,30.00
2019-06-10T02:20:54.108Z,30.60
2019-06-10T02:23:31.393Z,26.57
2019-06-10T02:26:07.633Z,30.02
2019-06-10T02:28:43.541Z,27.10
2019-06-10T02:31:29.100Z,30.65
2019-06-10T02:33:57.404Z,30.43
2019-06-10T02:36:36.821Z,30.20
2019-06-10T02:39:16.652Z,30.57
2019-06-10T02:41:49.323Z,31.30
2019-06-10T02:44:32.651Z,31.68
2019-06-10T02:47:03.533Z,31.37
2019-06-10T02:49:56.461Z,33.23
2019-06-10T02:52:22.993Z,32.03
2019-06-10T02:54:57.544Z,29.48
2019-06-10T02:57:39.659Z,31.70
2019-06-10T03:00:20.801Z,30.72
2019-06-10T03:02:52.954Z,32.80
2019-06-10T03:05:35.210Z,32.73
2019-06-10T03:08:05.502Z,33.70
2019-06-10T03:10:44.275Z,30.97
2019-06-10T03:13:19.745Z,29.42
2019-06-10T03:16:02.959Z,31.77
2019-06-10T03:18:38.974Z,32.67
2019-06-10T03:21:15.936Z,31.55
2019-06-10T03:23:53.152Z,33.30
2019-06-10T03:26:29.090Z,32.70
2019-06-10T03:29:05.011Z,28.20
2019-06-10T03:31:46.435Z,27.42
2019-06-10T03:34:23.234Z,29.07
2019-06-10T03:36:56.271Z,26.95
2019-06-10T03:39:32.337Z,27.22
2019-06-10T03:42:09.636Z,29.90
2019-06-10T03:44:47.787Z,29.05
2019-06-10T03:47:24.373Z,27.05
2019-06-10T03:50:03.256Z,26.33
2019-06-10T03:52:39.211Z,27.73
2019-06-10T03:55:17.236Z,25.50
2019-06-10T03:57:53.676Z,34.20
2019-06-10T04:00:29.738Z,28.12
2019-06-10T04:03:06.605Z,25.62
2019-06-10T04:05:46.876Z,27.55
2019-06-10T04:08:28.081Z,27.02
2019-06-10T04:11:04.004Z,27.07
2019-06-10T04:13:39.914Z,27.58
2019-06-10T04:16:15.830Z,28.90
2019-06-10T04:18:53.474Z,28.25
2019-06-10T04:21:29.665Z,26.65
2019-06-10T04:24:05.931Z,30.72
2019-06-10T04:26:43.462Z,33.23
2019-06-10T04:29:22.576Z,30.48
2019-06-10T04:31:58.004Z,29.35
2019-06-10T04:34:34.020Z,30.77
2019-06-10T04:37:12.339Z,28.60
2019-06-10T04:39:47.546Z,25.43
2019-06-10T04:42:25.703Z,27.37
2019-06-10T04:45:03.217Z,26.85
2019-06-10T04:47:39.975Z,25.72
2019-06-10T04:50:24.945Z,25.85
2019-06-10T04:52:53.938Z,25.15
2019-06-10T04:55:29.894Z,23.60
2019-06-10T04:58:05.856Z,23.20
2019-06-10T05:00:42.866Z,23.80
2019-06-10T05:03:18.993Z,23.67
2019-06-10T05:05:56.075Z,22.93
2019-06-10T05:08:33.836Z,21.80
2019-06-10T05:11:10.036Z,21.52
2019-06-10T05:13:45.997Z,21.73
2019-06-10T05:16:27.016Z,21.68
2019-06-10T05:19:03.616Z,21.65
2019-06-10T05:21:38.588Z,19.70
2019-06-10T05:24:14.641Z,20.72
2019-06-10T05:26:52.561Z,21.50
2019-06-10T05:29:29.553Z,21.82
2019-06-10T05:32:06.287Z,21.23
2019-06-10T05:34:43.721Z,20.23
2019-06-10T05:37:21.286Z,20.27
2019-06-10T05:39:57.653Z,20.65
2019-06-10T05:42:36.149Z,18.55
2019-06-10T05:45:12.693Z,22.10
2019-06-10T05:47:48.688Z,21.05
2019-06-10T05:50:25.257Z,20.60
2019-06-10T05:53:02.596Z,22.65
2019-06-10T05:55:38.609Z,21.62
2019-06-10T05:58:14.555Z,23.67
2019-06-10T06:00:53.011Z,23.92
2019-06-10T06:03:28.315Z,23.00
2019-06-10T06:06:04.283Z,23.70
2019-06-10T06:08:42.653Z,24.20
2019-06-10T06:11:18.348Z,23.05
2019-06-10T06:13:54.400Z,23.85
2019-06-10T06:16:32.652Z,25.12
2019-06-10T06:19:08.046Z,23.35
2019-06-10T06:21:47.587Z,25.12
2019-06-10T06:24:22.089Z,23.32
2019-06-10T06:26:58.169Z,23.02
2019-06-10T06:29:36.575Z,23.85
2019-06-10T06:32:13.207Z,24.15
2019-06-10T06:34:49.421Z,23.30
2019-06-10T06:37:26.791Z,23.02
2019-06-10T06:40:03.002Z,21.85
2019-06-10T06:42:39.126Z,22.13
2019-06-10T06:45:16.550Z,22.73
2019-06-10T06:47:52.867Z,22.80
2019-06-10T06:50:30.174Z,23.30
2019-06-10T06:53:21.341Z,21.37
2019-06-10T06:55:45.062Z,22.02
2019-06-10T06:58:23.023Z,20.57
2019-06-10T07:01:08.367Z,19.07
2019-06-10T07:03:38.574Z,18.10
2019-06-10T07:06:15.965Z,17.30
2019-06-10T07:09:04.274Z,16.55
2019-06-10T07:11:34.586Z,16.00
2019-06-10T07:14:13.394Z,15.75
2019-06-10T07:16:52.812Z,15.68
2019-06-10T07:19:28.222Z,15.63
2019-06-10T07:22:12.227Z,15.15
2019-06-10T07:24:46.880Z,15.60
2019-06-10T07:27:19.675Z,15.50
2019-06-10T07:29:55.642Z,14.60
2019-06-10T07:32:34.272Z,15.63
2019-06-10T07:35:09.771Z,14.85
2019-06-10T07:37:46.150Z,15.85
2019-06-10T07:40:22.430Z,15.43
2019-06-10T07:42:58.485Z,14.70
2019-06-10T07:45:37.791Z,14.28
2019-06-10T07:48:12.286Z,14.68
2019-06-10T07:50:48.413Z,14.33
2019-06-10T07:53:24.481Z,15.03
2019-06-10T07:56:02.924Z,13.93
2019-06-10T07:58:38.843Z,13.35
2019-06-10T08:01:15.819Z,14.68
2019-06-10T08:03:52.725Z,14.03
2019-06-10T08:06:28.950Z,14.20
2019-06-10T08:09:06.525Z,14.13
2019-06-10T08:11:46.725Z,13.28
2019-06-10T08:14:22.247Z,13.55
2019-06-10T08:16:58.933Z,12.88
2019-06-10T08:19:40.042Z,12.98
2019-06-10T08:22:17.239Z,12.75
2019-06-10T08:24:52.369Z,13.10
2019-06-10T08:27:28.175Z,13.08
2019-06-10T08:30:18.567Z,13.60
2019-06-10T08:32:46.844Z,12.85
2019-06-10T08:35:37.656Z,13.15
2019-06-10T08:37:59.289Z,13.05
2019-06-10T08:40:36.318Z,13.20
2019-06-10T08:43:13.295Z,12.88
2019-06-10T08:45:49.385Z,12.68
2019-06-10T08:48:25.353Z,11.48
2019-06-10T08:51:03.258Z,12.47
2019-06-10T08:53:44.193Z,12.35
2019-06-10T08:56:17.829Z,12.45
2019-06-10T08:58:54.247Z,12.58
2019-06-10T09:01:31.082Z,12.55
2019-06-10T09:04:08.164Z,12.20
2019-06-10T09:06:48.779Z,13.38
2019-06-10T09:09:22.622Z,12.03
2019-06-10T09:11:58.690Z,12.23
2019-06-10T09:14:34.639Z,12.73
2019-06-10T09:17:12.548Z,12.00
2019-06-10T09:19:51.247Z,12.68
2019-06-10T09:22:26.661Z,13.28
2019-06-10T09:25:03.089Z,13.30
2019-06-10T09:27:42.573Z,12.82
2019-06-10T09:30:19.077Z,12.07
2019-06-10T09:32:56.820Z,12.13
2019-06-10T09:35:32.736Z,13.18
2019-06-10T09:38:08.807Z,12.07
2019-06-10T09:40:59.025Z,12.95
2019-06-10T09:43:28.087Z,12.68
2019-06-10T09:46:04.237Z,12.47
2019-06-10T09:48:46.034Z,11.70
2019-06-10T09:51:18.724Z,12.15
2019-06-10T09:54:03.167Z,11.88
2019-06-10T09:56:33.117Z,12.53
2019-06-10T09:59:12.588Z,12.35
2019-06-10T10:01:52.513Z,11.45
2019-06-10T10:04:26.394Z,11.83
2019-06-10T10:07:03.182Z,12.30
2019-06-10T10:09:42.107Z,11.78
2019-06-10T10:12:17.474Z,11.90
2019-06-10T10:14:56.153Z,11.70
2019-06-10T10:17:33.374Z,11.45
2019-06-10T10:20:09.401Z,10.95
2019-06-10T10:22:46.071Z,12.65
2019-06-10T10:25:23.591Z,12.15
2019-06-10T10:27:59.709Z,12.23
2019-06-10T10:30:35.688Z,11.50
2019-06-10T10:33:12.852Z,12.30
2019-06-10T10:35:49.314Z,11.40
2019-06-10T10:38:27.946Z,11.83
2019-06-10T10:41:04.791Z,11.40
2019-06-10T10:43:43.732Z,11.50
2019-06-10T10:46:19.299Z,11.57
2019-06-10T10:48:56.635Z,11.60
2019-06-10T10:51:32.787Z,12.13
2019-06-10T10:54:22.417Z,11.93
2019-06-10T10:56:49.196Z,11.28
2019-06-10T10:59:24.712Z,11.60
2019-06-10T11:02:02.369Z,11.80
2019-06-10T11:04:42.691Z,11.57
2019-06-10T11:07:19.082Z,11.73
2019-06-10T11:09:56.675Z,11.75
2019-06-10T11:12:34.796Z,10.72
2019-06-10T11:15:13.675Z,10.93
2019-06-10T11:17:49.509Z,10.75
2019-06-10T11:20:25.568Z,11.30
2019-06-10T11:23:02.970Z,11.18
2019-06-10T11:25:39.120Z,11.20
2019-06-10T11:28:15.082Z,10.65
2019-06-10T11:30:56.364Z,10.72
2019-06-10T11:33:28.901Z,10.95
2019-06-10T11:36:06.229Z,10.78
2019-06-10T11:38:42.592Z,10.28
2019-06-10T11:41:18.967Z,10.25
2019-06-10T11:43:57.759Z,11.18
2019-06-10T11:46:33.212Z,11.15
2019-06-10T11:49:09.285Z,11.05
2019-06-10T11:51:45.251Z,10.53
2019-06-10T11:54:23.993Z,11.28
2019-06-10T11:56:59.955Z,11.05
2019-06-10T11:59:36.174Z,11.33
2019-06-10T12:02:13.355Z,11.12
2019-06-10T12:04:51.097Z,10.50
2019-06-10T12:07:27.227Z,10.90
2019-06-10T12:10:04.215Z,10.70
2019-06-10T12:12:40.271Z,9.85
2019-06-10T12:15:16.875Z,10.13
2019-06-10T12:18:01.782Z,10.43
2019-06-10T12:20:33.382Z,10.48
2019-06-10T12:23:09.613Z,10.23
2019-06-10T12:25:47.893Z,9.93
2019-06-10T12:28:23.268Z,9.83
2019-06-10T12:31:02.009Z,10.50
2019-06-10T12:33:37.033Z,10.70
2019-06-10T12:36:14.114Z,10.35
2019-06-10T12:38:58.276Z,10.00
2019-06-10T12:44:07.909Z,10.43
2019-06-10T12:46:44.191Z,10.08
2019-06-10T12:49:20.142Z,9.78
2019-06-10T12:51:57.397Z,9.83
2019-06-10T12:54:33.476Z,10.78
2019-06-10T12:57:09.445Z,10.20
2019-06-10T12:59:45.510Z,10.58
2019-06-10T13:02:27.829Z,10.13
2019-06-10T13:04:59.782Z,9.83
2019-06-10T13:07:42.879Z,9.40
2019-06-10T13:10:22.571Z,9.93
2019-06-10T13:13:00.134Z,8.88
2019-06-10T13:15:36.893Z,8.78
2019-06-10T13:18:19.011Z,8.45
2019-06-10T13:20:50.458Z,9.23
2019-06-10T13:23:31.969Z,8.73
2019-06-10T13:26:10.791Z,8.95
2019-06-10T13:28:44.450Z,8.75
2019-06-10T13:31:23.362Z,8.85
2019-06-10T13:34:03.857Z,9.00
2019-06-10T13:36:37.157Z,8.65
2019-06-10T13:39:13.604Z,8.80
2019-06-10T13:41:49.797Z,8.55
2019-06-10T13:44:25.848Z,8.70
2019-06-10T13:47:08.134Z,8.73
2019-06-10T13:49:39.796Z,8.18
2019-06-10T13:52:16.909Z,8.70
2019-06-10T13:54:53.147Z,8.85
2019-06-10T13:57:29.078Z,9.75
2019-06-10T14:00:12.378Z,8.75
2019-06-10T14:02:48.599Z,7.80
2019-06-10T14:05:24.755Z,9.25
2019-06-10T14:08:05.452Z,10.25
2019-06-10T14:10:39.122Z,9.30
2019-06-10T14:13:15.599Z,8.80
2019-06-10T14:15:53.429Z,9.03
2019-06-10T14:18:29.291Z,8.25
2019-06-10T14:21:09.222Z,9.98
2019-06-10T14:23:43.053Z,8.65
2019-06-10T14:26:34.529Z,9.03
2019-06-10T14:28:56.591Z,9.43
2019-06-10T14:31:40.479Z,9.28
2019-06-10T14:34:16.264Z,8.50
2019-06-10T14:36:49.579Z,9.03
2019-06-10T14:39:25.564Z,8.48
2019-06-10T14:42:04.868Z,8.73
2019-06-10T14:44:39.148Z,8.88
2019-06-10T14:47:16.422Z,8.40
2019-06-10T14:49:53.809Z,9.03
2019-06-10T14:52:31.989Z,8.65
2019-06-10T14:55:09.196Z,8.93
2019-06-10T14:57:46.303Z,9.85
2019-06-10T15:00:23.667Z,9.00
2019-06-10T15:03:02.431Z,8.95
2019-06-10T15:05:37.469Z,8.90
2019-06-10T15:08:15.453Z,9.53
2019-06-10T15:10:52.815Z,9.03
2019-06-10T15:13:28.991Z,9.18
2019-06-10T15:16:05.049Z,9.35
2019-06-10T15:18:43.147Z,8.70
2019-06-10T15:21:19.419Z,8.73
2019-06-10T15:23:56.478Z,9.58
2019-06-10T15:26:32.727Z,9.73
2019-06-10T15:29:11.148Z,9.33
2019-06-10T15:31:47.407Z,9.60
2019-06-10T15:34:24.258Z,9.73
2019-06-10T15:37:02.617Z,9.33
2019-06-10T15:39:37.892Z,9.23
2019-06-10T15:42:13.849Z,8.98
2019-06-10T15:44:55.241Z,8.30
2019-06-10T15:47:27.393Z,9.43
2019-06-10T15:50:03.567Z,9.15
2019-06-10T15:52:39.512Z,9.85
2019-06-10T15:55:42.460Z,9.53
2019-06-10T15:57:54.301Z,8.90
2019-06-10T16:00:30.461Z,9.30
2019-06-10T16:03:06.416Z,8.78
2019-06-10T16:05:42.802Z,9.40
2019-06-10T16:08:19.958Z,10.03
2019-06-10T16:10:56.334Z,10.00
2019-06-10T16:13:32.498Z,9.55
2019-06-10T16:16:08.746Z,9.38
2019-06-10T16:18:44.977Z,9.25
2019-06-10T16:21:22.006Z,9.03
2019-06-10T16:23:58.177Z,9.20
2019-06-10T16:26:35.531Z,9.63
2019-06-10T16:29:15.007Z,9.45
2019-06-10T16:31:54.224Z,8.78
2019-06-10T16:34:32.374Z,9.28
2019-06-10T16:37:08.038Z,9.30
2019-06-10T16:39:43.974Z,9.88
2019-06-10T16:42:22.962Z,9.00
2019-06-10T16:44:58.255Z,9.48
2019-06-10T16:47:35.209Z,9.60
2019-06-10T16:50:12.224Z,8.80
2019-06-10T16:52:48.215Z,9.20
2019-06-10T16:55:25.805Z,9.05
2019-06-10T16:58:02.802Z,9.55
2019-06-10T17:00:38.855Z,8.88
2019-06-10T17:03:14.838Z,9.58
2019-06-10T17:05:53.098Z,9.55
2019-06-10T17:08:28.613Z,9.50
2019-06-10T17:11:04.666Z,9.48
2019-06-10T17:13:42.244Z,9.55
2019-06-10T17:16:18.359Z,10.15
2019-06-10T17:18:54.388Z,11.63
2019-06-10T17:21:34.419Z,9.80
2019-06-10T17:24:08.007Z,10.15
2019-06-10T17:26:44.156Z,8.48
2019-06-10T17:29:22.793Z,9.50
2019-06-10T17:31:57.816Z,9.63
2019-06-10T17:34:34.081Z,9.58
2019-06-10T17:37:12.357Z,9.78
2019-06-10T17:39:47.614Z,9.48
2019-06-10T17:42:28.863Z,9.18
2019-06-10T17:45:02.529Z,9.05
2019-06-10T17:47:38.837Z,9.28
2019-06-10T17:50:14.853Z,10.10
2019-06-10T17:52:53.245Z,9.70
2019-06-10T17:55:29.621Z,9.28
2019-06-10T17:58:06.119Z,10.00
2019-06-10T18:00:42.303Z,10.08
2019-06-10T18:03:18.259Z,8.95
2019-06-10T18:05:55.155Z,9.83
2019-06-10T18:08:34.605Z,10.00
2019-06-10T18:11:08.664Z,10.40
2019-06-10T18:13:44.668Z,10.60
2019-06-10T18:16:22.786Z,10.88
2019-06-10T18:18:58.231Z,10.60
2019-06-10T18:21:36.253Z,10.90
2019-06-10T18:24:12.765Z,10.23
2019-06-10T18:26:48.836Z,10.00
2019-06-10T18:29:25.175Z,10.13
2019-06-10T18:32:03.274Z,10.88
2019-06-10T18:34:38.771Z,11.28
2019-06-10T18:37:14.721Z,11.30
2019-06-10T18:39:52.213Z,11.20
2019-06-10T18:42:28.569Z,10.55
2019-06-10T18:45:09.530Z,12.40
2019-06-10T18:47:53.107Z,12.00
2019-06-10T18:50:30.301Z,12.18
2019-06-10T18:53:07.280Z,12.37
2019-06-10T18:55:43.729Z,12.53
2019-06-10T18:58:22.176Z,12.58
2019-06-10T19:01:03.947Z,12.45
2019-06-10T19:03:36.673Z,12.63
2019-06-10T19:06:13.104Z,12.13
2019-06-10T19:08:49.032Z,12.70
2019-06-10T19:11:24.987Z,12.20
2019-06-10T19:14:03.171Z,12.63
2019-06-10T19:16:38.937Z,12.55
2019-06-10T19:19:16.975Z,12.37
2019-06-10T19:22:04.591Z,13.72
2019-06-10T19:24:34.279Z,13.30
2019-06-10T19:27:09.047Z,13.32
2019-06-10T19:29:50.764Z,13.35
2019-06-10T19:32:22.795Z,14.10
2019-06-10T19:34:58.860Z,13.68
2019-06-10T19:37:37.121Z,13.70
2019-06-10T19:40:13.610Z,19.20
2019-06-10T19:42:49.597Z,14.80
2019-06-10T19:45:25.549Z,15.20
2019-06-10T19:48:03.353Z,14.23
2019-06-10T19:50:47.600Z,15.23
2019-06-10T19:53:18.416Z,14.68
2019-06-10T19:55:54.399Z,15.75
2019-06-10T19:58:32.365Z,14.87
2019-06-10T20:01:08.141Z,14.18
2019-06-10T20:03:46.442Z,14.73
2019-06-10T20:06:21.899Z,14.00
2019-06-10T20:08:57.954Z,13.98
2019-06-10T20:11:34.128Z,13.78
2019-06-10T20:14:12.698Z,14.38
2019-06-10T20:16:48.130Z,14.38
2019-06-10T20:19:25.267Z,14.18
2019-06-10T20:22:01.222Z,14.45
2019-06-10T20:24:38.427Z,14.25
2019-06-10T20:27:14.477Z,14.70
2019-06-10T20:30:04.647Z,15.05
2019-06-10T20:32:28.232Z,15.28
2019-06-10T20:35:05.418Z,14.70
2019-06-10T20:37:44.253Z,15.15
2019-06-10T20:40:19.983Z,15.23
2019-06-10T20:42:55.960Z,15.70
2019-06-10T20:45:33.237Z,16.15
2019-06-10T20:48:09.491Z,15.15
2019-06-10T20:50:47.338Z,15.03
2019-06-10T20:53:23.460Z,15.15
2019-06-10T20:55:59.518Z,15.43
2019-06-10T20:58:35.581Z,15.68
2019-06-10T21:01:12.547Z,15.55
2019-06-10T21:03:49.908Z,16.80
2019-06-10T21:06:27.234Z,16.25
2019-06-10T21:09:06.406Z,16.55
2019-06-10T21:11:46.392Z,16.20
2019-06-10T21:14:22.909Z,18.32
2019-06-10T21:16:58.630Z,18.05
2019-06-10T21:19:34.597Z,17.60
2019-06-10T21:22:12.890Z,18.70
2019-06-10T21:24:48.786Z,19.20
2019-06-10T21:27:24.913Z,17.00
2019-06-10T21:30:03.118Z,17.50
2019-06-10T21:32:38.666Z,16.73
2019-06-10T21:35:14.750Z,15.75
2019-06-10T21:37:51.716Z,16.42
2019-06-10T21:40:27.756Z,15.83
2019-06-10T21:43:03.822Z,16.62
2019-06-10T21:45:42.479Z,15.70
2019-06-10T21:48:17.475Z,16.05
2019-06-10T21:50:55.814Z,17.00
2019-06-10T21:53:31.129Z,16.02
2019-06-10T21:56:07.085Z,17.35
2019-06-10T21:58:43.905Z,16.05
2019-06-10T22:01:22.403Z,17.42
2019-06-10T22:04:01.034Z,17.00
2019-06-10T22:06:37.150Z,17.37
2019-06-10T22:09:13.137Z,17.52
2019-06-10T22:11:50.073Z,18.30
2019-06-10T22:14:26.876Z,18.70
2019-06-10T22:17:03.157Z,18.45
2019-06-10T22:19:39.810Z,18.35
2019-06-10T22:22:15.756Z,19.17
2019-06-10T22:24:53.629Z,18.90
2019-06-10T22:27:29.410Z,19.27
2019-06-10T22:30:11.368Z,18.85
2019-06-10T22:32:47.251Z,18.90
2019-06-10T22:35:23.441Z,17.65
2019-06-10T22:37:59.390Z,18.32
2019-06-10T22:40:35.347Z,20.17
2019-06-10T22:43:12.928Z,21.65
2019-06-10T22:45:49.470Z,20.48
2019-06-10T22:48:25.571Z,20.75
2019-06-10T22:51:01.534Z,21.17
2019-06-10T22:53:37.691Z,20.40
2019-06-10T22:56:13.747Z,21.77
2019-06-10T22:58:52.706Z,20.92
2019-06-10T23:01:34.170Z,21.68
2019-06-10T23:04:05.199Z,20.62
2019-06-10T23:06:41.149Z,20.15
2019-06-10T23:09:17.115Z,20.82
2019-06-10T23:11:54.393Z,19.82
2019-06-10T23:14:33.061Z,20.05
2019-06-10T23:17:08.966Z,20.40
2019-06-10T23:19:45.040Z,19.87
2019-06-10T23:22:22.005Z,20.90
2019-06-10T23:24:58.381Z,20.12
2019-06-10T23:27:34.329Z,19.90
2019-06-10T23:30:11.961Z,20.68
2019-06-10T23:32:48.096Z,20.52
2019-06-10T23:35:24.357Z,21.45
2019-06-10T23:38:04.834Z,21.70
2019-06-10T23:40:38.009Z,21.15
2019-06-10T23:43:13.969Z,22.60
2019-06-10T23:45:51.118Z,22.00
2019-06-10T23:48:27.098Z,21.48
2019-06-10T23:51:04.881Z,21.52
2019-06-10T23:53:40.763Z,21.57
2019-06-10T23:56:16.708Z,21.45
2019-06-10T23:58:55.563Z,21.30
